sensor_id;sensor_type;location;lat;lon;timestamp;P1;durP1;ratioP1;P2;durP2;ratioP2
84668;SDS011;74897;42.704;23.318;2024-01-15T00:00:32;192.18;;;71.25;;
84668;SDS011;74897;42.704;23.318;2024-01-15T00:02:58;172.88;;;72.05;;
84668;SDS011;74897;42.704;23.318;2024-01-15T00:05:23;182.50;;;69.65;;
84668;SDS011;74897;42.704;23.318;2024-01-15T00:07:48;176.02;;;69.10;;
84668;SDS011;74897;42.704;23.318;2024-01-15T00:10:14;186.45;;;69.07;;
84668;SDS011;74897;42.704;23.318;2024-01-15T00:15:05;150.10;;;56.83;;
84668;SDS011;74897;42.704;23.318;2024-01-15T00:17:30;157.30;;;58.20;;
84668;SDS011;74897;42.704;23.318;2024-01-15T00:19:55;140.67;;;56.10;;
84668;SDS011;74897;42.704;23.318;2024-01-15T00:22:21;153.60;;;59.07;;
84668;SDS011;74897;42.704;23.318;2024-01-15T00:24:46;159.68;;;62.35;;
84668;SDS011;74897;42.704;23.318;2024-01-15T00:29:36;143.43;;;56.67;;
84668;SDS011;74897;42.704;23.318;2024-01-15T00:34:27;142.45;;;54.13;;
84668;SDS011;74897;42.704;23.318;2024-01-15T00:39:18;156.95;;;53.13;;
84668;SDS011;74897;42.704;23.318;2024-01-15T00:41:43;152.13;;;60.15;;
84668;SDS011;74897;42.704;23.318;2024-01-15T00:44:08;162.10;;;66.60;;
84668;SDS011;74897;42.704;23.318;2024-01-15T00:46:41;163.35;;;63.78;;
84668;SDS011;74897;42.704;23.318;2024-01-15T00:49:06;164.88;;;64.90;;
84668;SDS011;74897;42.704;23.318;2024-01-15T00:51:31;164.13;;;64.00;;
84668;SDS011;74897;42.704;23.318;2024-01-15T00:53:57;168.53;;;66.13;;
84668;SDS011;74897;42.704;23.318;2024-01-15T00:56:22;169.03;;;66.70;;
84668;SDS011;74897;42.704;23.318;2024-01-15T00:58:47;164.07;;;64.80;;
84668;SDS011;74897;42.704;23.318;2024-01-15T01:01:13;152.10;;;58.80;;
84668;SDS011;74897;42.704;23.318;2024-01-15T01:03:38;166.77;;;64.55;;
84668;SDS011;74897;42.704;23.318;2024-01-15T01:06:03;167.83;;;63.53;;
84668;SDS011;74897;42.704;23.318;2024-01-15T01:08:29;159.18;;;64.18;;
84668;SDS011;74897;42.704;23.318;2024-01-15T01:11:16;150.75;;;63.63;;
84668;SDS011;74897;42.704;23.318;2024-01-15T01:13:41;171.07;;;65.15;;
84668;SDS011;74897;42.704;23.318;2024-01-15T01:16:06;161.95;;;64.38;;
84668;SDS011;74897;42.704;23.318;2024-01-15T01:18:32;159.45;;;61.65;;
84668;SDS011;74897;42.704;23.318;2024-01-15T01:20:57;167.45;;;64.25;;
84668;SDS011;74897;42.704;23.318;2024-01-15T01:23:22;152.00;;;63.45;;
84668;SDS011;74897;42.704;23.318;2024-01-15T01:25:48;154.38;;;58.30;;
84668;SDS011;74897;42.704;23.318;2024-01-15T01:28:13;152.43;;;60.85;;
84668;SDS011;74897;42.704;23.318;2024-01-15T01:30:38;155.23;;;58.75;;
84668;SDS011;74897;42.704;23.318;2024-01-15T01:33:04;152.98;;;60.92;;
84668;SDS011;74897;42.704;23.318;2024-01-15T01:35:29;135.30;;;52.35;;
84668;SDS011;74897;42.704;23.318;2024-01-15T01:37:55;116.80;;;47.03;;
84668;SDS011;74897;42.704;23.318;2024-01-15T01:40:20;117.53;;;45.70;;
84668;SDS011;74897;42.704;23.318;2024-01-15T01:42:46;122.47;;;48.28;;
84668;SDS011;74897;42.704;23.318;2024-01-15T01:45:11;123.43;;;48.67;;
84668;SDS011;74897;42.704;23.318;2024-01-15T01:47:36;125.90;;;49.70;;
84668;SDS011;74897;42.704;23.318;2024-01-15T01:50:02;125.72;;;46.92;;
84668;SDS011;74897;42.704;23.318;2024-01-15T01:52:27;119.95;;;47.67;;
84668;SDS011;74897;42.704;23.318;2024-01-15T01:54:53;126.80;;;50.00;;
84668;SDS011;74897;42.704;23.318;2024-01-15T01:57:19;124.22;;;49.70;;
84668;SDS011;74897;42.704;23.318;2024-01-15T01:59:44;133.82;;;51.92;;
84668;SDS011;74897;42.704;23.318;2024-01-15T02:02:10;123.93;;;48.70;;
84668;SDS011;74897;42.704;23.318;2024-01-15T02:04:36;127.95;;;50.13;;
84668;SDS011;74897;42.704;23.318;2024-01-15T02:07:01;128.50;;;51.45;;
84668;SDS011;74897;42.704;23.318;2024-01-15T02:09:27;136.85;;;51.47;;
84668;SDS011;74897;42.704;23.318;2024-01-15T02:11:53;120.20;;;49.83;;
84668;SDS011;74897;42.704;23.318;2024-01-15T02:14:18;136.98;;;51.85;;
84668;SDS011;74897;42.704;23.318;2024-01-15T02:16:43;116.35;;;49.70;;
84668;SDS011;74897;42.704;23.318;2024-01-15T02:19:18;135.50;;;51.72;;
84668;SDS011;74897;42.704;23.318;2024-01-15T02:21:43;122.22;;;49.75;;
84668;SDS011;74897;42.704;23.318;2024-01-15T02:24:08;129.15;;;51.70;;
84668;SDS011;74897;42.704;23.318;2024-01-15T02:26:34;124.25;;;50.28;;
84668;SDS011;74897;42.704;23.318;2024-01-15T02:29:01;120.38;;;51.22;;
84668;SDS011;74897;42.704;23.318;2024-01-15T02:31:26;131.82;;;52.60;;
84668;SDS011;74897;42.704;23.318;2024-01-15T02:33:51;128.87;;;51.60;;
84668;SDS011;74897;42.704;23.318;2024-01-15T02:36:17;120.60;;;48.70;;
84668;SDS011;74897;42.704;23.318;2024-01-15T02:38:42;118.90;;;46.42;;
84668;SDS011;74897;42.704;23.318;2024-01-15T02:41:07;104.70;;;42.08;;
84668;SDS011;74897;42.704;23.318;2024-01-15T02:43:33;114.15;;;44.35;;
84668;SDS011;74897;42.704;23.318;2024-01-15T02:45:58;101.67;;;39.20;;
84668;SDS011;74897;42.704;23.318;2024-01-15T02:48:23;107.80;;;43.73;;
84668;SDS011;74897;42.704;23.318;2024-01-15T02:50:48;101.77;;;41.27;;
84668;SDS011;74897;42.704;23.318;2024-01-15T02:53:14;117.57;;;43.95;;
84668;SDS011;74897;42.704;23.318;2024-01-15T02:55:39;109.95;;;43.05;;
84668;SDS011;74897;42.704;23.318;2024-01-15T02:58:05;108.00;;;42.45;;
84668;SDS011;74897;42.704;23.318;2024-01-15T03:00:30;105.90;;;44.60;;
84668;SDS011;74897;42.704;23.318;2024-01-15T03:02:56;117.15;;;43.28;;
84668;SDS011;74897;42.704;23.318;2024-01-15T03:05:21;140.10;;;50.30;;
84668;SDS011;74897;42.704;23.318;2024-01-15T03:07:46;145.00;;;53.75;;
84668;SDS011;74897;42.704;23.318;2024-01-15T03:10:12;150.43;;;56.60;;
84668;SDS011;74897;42.704;23.318;2024-01-15T03:12:38;149.85;;;53.03;;
84668;SDS011;74897;42.704;23.318;2024-01-15T03:15:03;136.27;;;51.93;;
84668;SDS011;74897;42.704;23.318;2024-01-15T03:17:29;141.27;;;50.72;;
84668;SDS011;74897;42.704;23.318;2024-01-15T03:19:54;125.25;;;49.70;;
84668;SDS011;74897;42.704;23.318;2024-01-15T03:22:19;121.45;;;47.05;;
84668;SDS011;74897;42.704;23.318;2024-01-15T03:24:45;124.35;;;49.70;;
84668;SDS011;74897;42.704;23.318;2024-01-15T03:27:10;111.38;;;44.63;;
84668;SDS011;74897;42.704;23.318;2024-01-15T03:29:35;110.72;;;45.20;;
84668;SDS011;74897;42.704;23.318;2024-01-15T03:32:01;101.22;;;40.95;;
84668;SDS011;74897;42.704;23.318;2024-01-15T03:34:26;110.53;;;43.95;;
84668;SDS011;74897;42.704;23.318;2024-01-15T03:36:51;105.47;;;38.58;;
84668;SDS011;74897;42.704;23.318;2024-01-15T03:39:17;92.33;;;36.73;;
84668;SDS011;74897;42.704;23.318;2024-01-15T03:41:42;83.72;;;35.42;;
84668;SDS011;74897;42.704;23.318;2024-01-15T03:44:07;94.95;;;34.17;;
84668;SDS011;74897;42.704;23.318;2024-01-15T03:46:33;79.15;;;31.50;;
84668;SDS011;74897;42.704;23.318;2024-01-15T03:48:59;68.72;;;30.17;;
84668;SDS011;74897;42.704;23.318;2024-01-15T03:51:24;70.88;;;29.38;;
84668;SDS011;74897;42.704;23.318;2024-01-15T03:53:50;68.55;;;29.10;;
84668;SDS011;74897;42.704;23.318;2024-01-15T03:56:15;62.53;;;24.88;;
84668;SDS011;74897;42.704;23.318;2024-01-15T03:58:40;64.55;;;26.95;;
84668;SDS011;74897;42.704;23.318;2024-01-15T04:01:09;61.90;;;24.23;;
84668;SDS011;74897;42.704;23.318;2024-01-15T04:03:34;59.50;;;24.13;;
84668;SDS011;74897;42.704;23.318;2024-01-15T04:06:00;64.90;;;25.17;;
84668;SDS011;74897;42.704;23.318;2024-01-15T04:08:25;66.15;;;25.75;;
84668;SDS011;74897;42.704;23.318;2024-01-15T04:10:50;57.33;;;23.13;;
84668;SDS011;74897;42.704;23.318;2024-01-15T04:13:16;47.58;;;21.75;;
84668;SDS011;74897;42.704;23.318;2024-01-15T04:15:41;46.17;;;21.47;;
84668;SDS011;74897;42.704;23.318;2024-01-15T04:18:06;52.70;;;21.60;;
84668;SDS011;74897;42.704;23.318;2024-01-15T04:20:31;57.27;;;23.10;;
84668;SDS011;74897;42.704;23.318;2024-01-15T04:22:57;55.25;;;23.63;;
84668;SDS011;74897;42.704;23.318;2024-01-15T04:25:22;53.85;;;23.00;;
84668;SDS011;74897;42.704;23.318;2024-01-15T04:27:47;57.17;;;22.40;;
84668;SDS011;74897;42.704;23.318;2024-01-15T04:30:13;52.77;;;23.27;;
84668;SDS011;74897;42.704;23.318;2024-01-15T04:32:38;49.30;;;22.35;;
84668;SDS011;74897;42.704;23.318;2024-01-15T04:35:04;56.50;;;23.42;;
84668;SDS011;74897;42.704;23.318;2024-01-15T04:37:29;51.05;;;22.38;;
84668;SDS011;74897;42.704;23.318;2024-01-15T04:39:54;54.05;;;23.52;;
84668;SDS011;74897;42.704;23.318;2024-01-15T04:42:20;51.80;;;22.23;;
84668;SDS011;74897;42.704;23.318;2024-01-15T04:44:45;58.00;;;25.67;;
84668;SDS011;74897;42.704;23.318;2024-01-15T04:47:12;51.17;;;23.67;;
84668;SDS011;74897;42.704;23.318;2024-01-15T04:49:37;53.35;;;23.88;;
84668;SDS011;74897;42.704;23.318;2024-01-15T04:52:03;54.30;;;25.13;;
84668;SDS011;74897;42.704;23.318;2024-01-15T04:54:28;49.03;;;23.30;;
84668;SDS011;74897;42.704;23.318;2024-01-15T04:56:54;58.95;;;27.00;;
84668;SDS011;74897;42.704;23.318;2024-01-15T04:59:19;64.40;;;26.92;;
84668;SDS011;74897;42.704;23.318;2024-01-15T05:01:44;63.22;;;27.10;;
84668;SDS011;74897;42.704;23.318;2024-01-15T05:04:09;53.03;;;25.17;;
84668;SDS011;74897;42.704;23.318;2024-01-15T05:06:35;58.10;;;25.03;;
84668;SDS011;74897;42.704;23.318;2024-01-15T05:09:00;55.30;;;24.70;;
84668;SDS011;74897;42.704;23.318;2024-01-15T05:11:25;59.13;;;27.20;;
84668;SDS011;74897;42.704;23.318;2024-01-15T05:13:51;67.18;;;27.00;;
84668;SDS011;74897;42.704;23.318;2024-01-15T05:16:16;77.65;;;31.13;;
84668;SDS011;74897;42.704;23.318;2024-01-15T05:18:41;80.37;;;31.53;;
84668;SDS011;74897;42.704;23.318;2024-01-15T05:21:08;74.50;;;29.58;;
84668;SDS011;74897;42.704;23.318;2024-01-15T05:23:33;67.50;;;27.87;;
84668;SDS011;74897;42.704;23.318;2024-01-15T05:25:59;67.68;;;28.27;;
84668;SDS011;74897;42.704;23.318;2024-01-15T05:28:24;67.75;;;28.52;;
84668;SDS011;74897;42.704;23.318;2024-01-15T05:30:49;74.40;;;31.40;;
84668;SDS011;74897;42.704;23.318;2024-01-15T05:33:16;64.95;;;29.83;;
84668;SDS011;74897;42.704;23.318;2024-01-15T05:35:41;84.95;;;31.80;;
84668;SDS011;74897;42.704;23.318;2024-01-15T05:38:06;90.50;;;37.13;;
84668;SDS011;74897;42.704;23.318;2024-01-15T05:40:32;81.37;;;35.60;;
84668;SDS011;74897;42.704;23.318;2024-01-15T05:42:57;86.40;;;37.60;;
84668;SDS011;74897;42.704;23.318;2024-01-15T05:45:22;81.33;;;34.63;;
84668;SDS011;74897;42.704;23.318;2024-01-15T05:47:48;87.07;;;36.00;;
84668;SDS011;74897;42.704;23.318;2024-01-15T05:50:13;81.32;;;34.15;;
84668;SDS011;74897;42.704;23.318;2024-01-15T05:52:38;80.72;;;36.05;;
84668;SDS011;74897;42.704;23.318;2024-01-15T05:55:04;88.38;;;36.90;;
84668;SDS011;74897;42.704;23.318;2024-01-15T05:57:29;70.70;;;34.00;;
84668;SDS011;74897;42.704;23.318;2024-01-15T05:59:55;66.53;;;28.38;;
84668;SDS011;74897;42.704;23.318;2024-01-15T06:02:20;65.28;;;27.77;;
84668;SDS011;74897;42.704;23.318;2024-01-15T06:04:45;71.47;;;29.20;;
84668;SDS011;74897;42.704;23.318;2024-01-15T06:07:11;84.55;;;35.05;;
84668;SDS011;74897;42.704;23.318;2024-01-15T06:09:36;78.75;;;35.10;;
84668;SDS011;74897;42.704;23.318;2024-01-15T06:12:02;83.82;;;33.45;;
84668;SDS011;74897;42.704;23.318;2024-01-15T06:14:27;82.38;;;35.10;;
84668;SDS011;74897;42.704;23.318;2024-01-15T06:16:52;83.53;;;35.35;;
84668;SDS011;74897;42.704;23.318;2024-01-15T06:19:18;85.95;;;35.42;;
84668;SDS011;74897;42.704;23.318;2024-01-15T06:21:43;92.13;;;39.80;;
84668;SDS011;74897;42.704;23.318;2024-01-15T06:24:08;87.10;;;39.13;;
84668;SDS011;74897;42.704;23.318;2024-01-15T06:29:00;74.67;;;32.57;;
84668;SDS011;74897;42.704;23.318;2024-01-15T06:31:25;110.45;;;40.90;;
84668;SDS011;74897;42.704;23.318;2024-01-15T06:33:51;97.23;;;37.97;;
84668;SDS011;74897;42.704;23.318;2024-01-15T06:36:16;92.38;;;39.42;;
84668;SDS011;74897;42.704;23.318;2024-01-15T06:38:43;102.73;;;38.37;;
84668;SDS011;74897;42.704;23.318;2024-01-15T06:41:08;97.03;;;40.28;;
84668;SDS011;74897;42.704;23.318;2024-01-15T06:43:33;87.20;;;36.88;;
84668;SDS011;74897;42.704;23.318;2024-01-15T06:45:59;95.90;;;39.78;;
84668;SDS011;74897;42.704;23.318;2024-01-15T06:48:24;102.07;;;39.38;;
84668;SDS011;74897;42.704;23.318;2024-01-15T06:50:49;97.67;;;39.43;;
84668;SDS011;74897;42.704;23.318;2024-01-15T06:53:15;107.35;;;43.53;;
84668;SDS011;74897;42.704;23.318;2024-01-15T06:55:40;98.17;;;39.03;;
84668;SDS011;74897;42.704;23.318;2024-01-15T06:58:05;103.57;;;42.00;;
84668;SDS011;74897;42.704;23.318;2024-01-15T07:00:31;98.88;;;41.17;;
84668;SDS011;74897;42.704;23.318;2024-01-15T07:02:56;99.65;;;39.15;;
84668;SDS011;74897;42.704;23.318;2024-01-15T07:05:22;97.10;;;42.10;;
84668;SDS011;74897;42.704;23.318;2024-01-15T07:10:12;90.57;;;37.30;;
84668;SDS011;74897;42.704;23.318;2024-01-15T07:15:04;84.00;;;36.20;;
84668;SDS011;74897;42.704;23.318;2024-01-15T07:17:32;88.63;;;38.65;;
84668;SDS011;74897;42.704;23.318;2024-01-15T07:19:58;95.22;;;41.65;;
84668;SDS011;74897;42.704;23.318;2024-01-15T07:22:24;101.13;;;43.05;;
84668;SDS011;74897;42.704;23.318;2024-01-15T07:24:49;105.90;;;43.50;;
84668;SDS011;74897;42.704;23.318;2024-01-15T07:27:15;106.53;;;42.70;;
84668;SDS011;74897;42.704;23.318;2024-01-15T07:29:41;102.75;;;41.47;;
84668;SDS011;74897;42.704;23.318;2024-01-15T07:32:07;105.68;;;44.83;;
84668;SDS011;74897;42.704;23.318;2024-01-15T07:34:33;105.30;;;43.33;;
84668;SDS011;74897;42.704;23.318;2024-01-15T07:39:23;103.33;;;40.53;;
84668;SDS011;74897;42.704;23.318;2024-01-15T07:41:50;107.20;;;41.78;;
84668;SDS011;74897;42.704;23.318;2024-01-15T07:44:15;102.40;;;42.70;;
84668;SDS011;74897;42.704;23.318;2024-01-15T07:49:06;101.18;;;40.20;;
84668;SDS011;74897;42.704;23.318;2024-01-15T07:53:56;98.07;;;41.70;;
84668;SDS011;74897;42.704;23.318;2024-01-15T07:58:47;91.07;;;40.43;;
84668;SDS011;74897;42.704;23.318;2024-01-15T08:03:37;98.00;;;42.40;;
84668;SDS011;74897;42.704;23.318;2024-01-15T08:08:28;113.63;;;44.97;;
84668;SDS011;74897;42.704;23.318;2024-01-15T08:13:18;108.67;;;46.43;;
84668;SDS011;74897;42.704;23.318;2024-01-15T08:15:45;120.50;;;49.13;;
84668;SDS011;74897;42.704;23.318;2024-01-15T08:20:35;127.30;;;50.40;;
84668;SDS011;74897;42.704;23.318;2024-01-15T08:23:02;133.35;;;55.33;;
84668;SDS011;74897;42.704;23.318;2024-01-15T08:25:27;144.13;;;60.13;;
84668;SDS011;74897;42.704;23.318;2024-01-15T08:30:17;130.60;;;54.90;;
84668;SDS011;74897;42.704;23.318;2024-01-15T08:32:47;148.00;;;58.08;;
84668;SDS011;74897;42.704;23.318;2024-01-15T08:37:38;141.38;;;63.97;;
84668;SDS011;74897;42.704;23.318;2024-01-15T08:42:30;133.43;;;56.27;;
84668;SDS011;74897;42.704;23.318;2024-01-15T08:44:55;133.95;;;60.10;;
84668;SDS011;74897;42.704;23.318;2024-01-15T08:49:46;146.20;;;63.38;;
84668;SDS011;74897;42.704;23.318;2024-01-15T08:54:36;130.07;;;51.67;;
84668;SDS011;74897;42.704;23.318;2024-01-15T08:59:27;118.37;;;49.60;;
84668;SDS011;74897;42.704;23.318;2024-01-15T09:01:52;123.00;;;52.28;;
84668;SDS011;74897;42.704;23.318;2024-01-15T09:06:46;131.63;;;51.97;;
84668;SDS011;74897;42.704;23.318;2024-01-15T09:09:12;134.00;;;58.47;;
84668;SDS011;74897;42.704;23.318;2024-01-15T09:14:02;126.63;;;52.73;;
84668;SDS011;74897;42.704;23.318;2024-01-15T09:18:53;124.50;;;52.93;;
84668;SDS011;74897;42.704;23.318;2024-01-15T09:21:18;136.53;;;59.93;;
84668;SDS011;74897;42.704;23.318;2024-01-15T09:26:09;119.13;;;51.13;;
84668;SDS011;74897;42.704;23.318;2024-01-15T09:28:35;126.40;;;53.78;;
84668;SDS011;74897;42.704;23.318;2024-01-15T09:31:01;129.98;;;55.35;;
84668;SDS011;74897;42.704;23.318;2024-01-15T09:33:26;131.20;;;55.28;;
84668;SDS011;74897;42.704;23.318;2024-01-15T09:35:51;124.75;;;54.15;;
84668;SDS011;74897;42.704;23.318;2024-01-15T09:38:16;129.57;;;55.80;;
84668;SDS011;74897;42.704;23.318;2024-01-15T09:40:44;125.13;;;54.20;;
84668;SDS011;74897;42.704;23.318;2024-01-15T09:43:11;127.68;;;51.92;;
84668;SDS011;74897;42.704;23.318;2024-01-15T09:45:37;123.03;;;51.47;;
84668;SDS011;74897;42.704;23.318;2024-01-15T09:48:03;111.57;;;47.83;;
84668;SDS011;74897;42.704;23.318;2024-01-15T09:52:54;106.73;;;43.97;;
84668;SDS011;74897;42.704;23.318;2024-01-15T09:57:44;109.05;;;42.15;;
84668;SDS011;74897;42.704;23.318;2024-01-15T10:00:11;111.35;;;47.58;;
84668;SDS011;74897;42.704;23.318;2024-01-15T10:02:37;104.57;;;46.60;;
84668;SDS011;74897;42.704;23.318;2024-01-15T10:07:28;103.40;;;41.97;;
84668;SDS011;74897;42.704;23.318;2024-01-15T10:09:54;107.13;;;44.40;;
84668;SDS011;74897;42.704;23.318;2024-01-15T10:14:45;97.30;;;38.70;;
84668;SDS011;74897;42.704;23.318;2024-01-15T10:19:35;91.20;;;37.77;;
84668;SDS011;74897;42.704;23.318;2024-01-15T10:24:25;88.97;;;36.90;;
84668;SDS011;74897;42.704;23.318;2024-01-15T10:26:54;95.65;;;41.72;;
84668;SDS011;74897;42.704;23.318;2024-01-15T10:29:29;102.43;;;42.03;;
84668;SDS011;74897;42.704;23.318;2024-01-15T10:31:54;87.20;;;42.03;;
84668;SDS011;74897;42.704;23.318;2024-01-15T10:34:20;94.53;;;41.78;;
84668;SDS011;74897;42.704;23.318;2024-01-15T10:36:45;100.93;;;42.47;;
84668;SDS011;74897;42.704;23.318;2024-01-15T10:39:13;93.90;;;40.08;;
84668;SDS011;74897;42.704;23.318;2024-01-15T10:41:38;88.60;;;39.63;;
84668;SDS011;74897;42.704;23.318;2024-01-15T10:44:04;96.38;;;42.47;;
84668;SDS011;74897;42.704;23.318;2024-01-15T10:46:30;80.70;;;37.38;;
84668;SDS011;74897;42.704;23.318;2024-01-15T10:48:56;76.75;;;36.05;;
84668;SDS011;74897;42.704;23.318;2024-01-15T10:51:21;68.82;;;30.10;;
84668;SDS011;74897;42.704;23.318;2024-01-15T10:53:48;59.10;;;29.05;;
84668;SDS011;74897;42.704;23.318;2024-01-15T10:56:13;55.10;;;27.60;;
84668;SDS011;74897;42.704;23.318;2024-01-15T10:58:39;70.00;;;33.47;;
84668;SDS011;74897;42.704;23.318;2024-01-15T11:01:05;68.22;;;33.95;;
84668;SDS011;74897;42.704;23.318;2024-01-15T11:03:30;60.85;;;29.42;;
84668;SDS011;74897;42.704;23.318;2024-01-15T11:05:56;73.45;;;28.90;;
84668;SDS011;74897;42.704;23.318;2024-01-15T11:08:21;54.92;;;29.55;;
84668;SDS011;74897;42.704;23.318;2024-01-15T11:10:47;62.70;;;29.13;;
84668;SDS011;74897;42.704;23.318;2024-01-15T11:13:21;57.83;;;29.33;;
84668;SDS011;74897;42.704;23.318;2024-01-15T11:16:00;68.20;;;34.08;;
84668;SDS011;74897;42.704;23.318;2024-01-15T11:18:35;67.40;;;32.72;;
84668;SDS011;74897;42.704;23.318;2024-01-15T11:23:42;56.03;;;28.92;;
84668;SDS011;74897;42.704;23.318;2024-01-15T11:26:27;57.83;;;27.85;;
84668;SDS011;74897;42.704;23.318;2024-01-15T11:28:52;56.25;;;25.00;;
84668;SDS011;74897;42.704;23.318;2024-01-15T11:31:17;46.40;;;24.25;;
84668;SDS011;74897;42.704;23.318;2024-01-15T11:33:50;55.53;;;26.33;;
84668;SDS011;74897;42.704;23.318;2024-01-15T11:36:15;50.28;;;27.30;;
84668;SDS011;74897;42.704;23.318;2024-01-15T11:38:41;52.67;;;27.15;;
84668;SDS011;74897;42.704;23.318;2024-01-15T11:41:14;65.75;;;30.17;;
84668;SDS011;74897;42.704;23.318;2024-01-15T11:43:43;69.68;;;32.95;;
84668;SDS011;74897;42.704;23.318;2024-01-15T11:46:12;73.47;;;30.45;;
84668;SDS011;74897;42.704;23.318;2024-01-15T11:48:43;68.53;;;29.17;;
84668;SDS011;74897;42.704;23.318;2024-01-15T11:51:12;56.05;;;26.67;;
84668;SDS011;74897;42.704;23.318;2024-01-15T11:53:43;50.30;;;22.88;;
84668;SDS011;74897;42.704;23.318;2024-01-15T11:56:12;47.33;;;23.38;;
84668;SDS011;74897;42.704;23.318;2024-01-15T11:58:39;50.78;;;25.52;;
84668;SDS011;74897;42.704;23.318;2024-01-15T12:01:05;50.25;;;24.13;;
84668;SDS011;74897;42.704;23.318;2024-01-15T12:03:31;52.58;;;26.17;;
84668;SDS011;74897;42.704;23.318;2024-01-15T12:05:57;52.42;;;27.13;;
84668;SDS011;74897;42.704;23.318;2024-01-15T12:08:27;47.70;;;24.35;;
84668;SDS011;74897;42.704;23.318;2024-01-15T12:10:53;45.13;;;23.13;;
84668;SDS011;74897;42.704;23.318;2024-01-15T12:13:18;47.25;;;23.45;;
84668;SDS011;74897;42.704;23.318;2024-01-15T12:15:44;60.65;;;27.05;;
84668;SDS011;74897;42.704;23.318;2024-01-15T12:18:11;60.10;;;27.30;;
84668;SDS011;74897;42.704;23.318;2024-01-15T12:20:36;59.22;;;26.73;;
84668;SDS011;74897;42.704;23.318;2024-01-15T12:23:02;56.60;;;26.90;;
84668;SDS011;74897;42.704;23.318;2024-01-15T12:25:31;61.97;;;28.35;;
84668;SDS011;74897;42.704;23.318;2024-01-15T12:27:58;50.83;;;27.20;;
84668;SDS011;74897;42.704;23.318;2024-01-15T12:30:26;56.25;;;27.73;;
84668;SDS011;74897;42.704;23.318;2024-01-15T12:32:53;53.17;;;24.80;;
84668;SDS011;74897;42.704;23.318;2024-01-15T12:35:19;49.65;;;22.75;;
84668;SDS011;74897;42.704;23.318;2024-01-15T12:37:47;56.00;;;24.85;;
84668;SDS011;74897;42.704;23.318;2024-01-15T12:40:12;48.75;;;25.02;;
84668;SDS011;74897;42.704;23.318;2024-01-15T12:42:41;47.63;;;25.50;;
84668;SDS011;74897;42.704;23.318;2024-01-15T12:45:07;42.13;;;23.20;;
84668;SDS011;74897;42.704;23.318;2024-01-15T12:47:33;50.40;;;26.58;;
84668;SDS011;74897;42.704;23.318;2024-01-15T12:49:58;53.13;;;26.67;;
84668;SDS011;74897;42.704;23.318;2024-01-15T12:52:29;42.75;;;23.70;;
84668;SDS011;74897;42.704;23.318;2024-01-15T12:54:55;46.08;;;22.70;;
84668;SDS011;74897;42.704;23.318;2024-01-15T12:57:21;56.40;;;25.38;;
84668;SDS011;74897;42.704;23.318;2024-01-15T12:59:46;45.70;;;24.13;;
84668;SDS011;74897;42.704;23.318;2024-01-15T13:02:12;50.35;;;22.83;;
84668;SDS011;74897;42.704;23.318;2024-01-15T13:04:37;49.30;;;24.50;;
84668;SDS011;74897;42.704;23.318;2024-01-15T13:07:05;55.10;;;25.02;;
84668;SDS011;74897;42.704;23.318;2024-01-15T13:09:30;50.38;;;22.95;;
84668;SDS011;74897;42.704;23.318;2024-01-15T13:11:55;46.67;;;22.17;;
84668;SDS011;74897;42.704;23.318;2024-01-15T13:14:21;43.90;;;21.52;;
84668;SDS011;74897;42.704;23.318;2024-01-15T13:16:46;40.80;;;21.08;;
84668;SDS011;74897;42.704;23.318;2024-01-15T13:19:12;33.60;;;17.70;;
84668;SDS011;74897;42.704;23.318;2024-01-15T13:21:38;39.00;;;18.67;;
84668;SDS011;74897;42.704;23.318;2024-01-15T13:24:04;39.17;;;18.73;;
84668;SDS011;74897;42.704;23.318;2024-01-15T13:26:31;34.45;;;17.58;;
84668;SDS011;74897;42.704;23.318;2024-01-15T13:28:56;46.38;;;21.05;;
84668;SDS011;74897;42.704;23.318;2024-01-15T13:31:25;40.35;;;20.27;;
84668;SDS011;74897;42.704;23.318;2024-01-15T13:33:50;36.47;;;19.55;;
84668;SDS011;74897;42.704;23.318;2024-01-15T13:36:16;45.17;;;22.63;;
84668;SDS011;74897;42.704;23.318;2024-01-15T13:38:41;46.65;;;23.23;;
84668;SDS011;74897;42.704;23.318;2024-01-15T13:41:07;53.30;;;23.65;;
84668;SDS011;74897;42.704;23.318;2024-01-15T13:43:32;46.30;;;22.67;;
84668;SDS011;74897;42.704;23.318;2024-01-15T13:45:58;50.92;;;23.15;;
84668;SDS011;74897;42.704;23.318;2024-01-15T13:48:23;47.53;;;23.63;;
84668;SDS011;74897;42.704;23.318;2024-01-15T13:50:49;49.05;;;26.25;;
84668;SDS011;74897;42.704;23.318;2024-01-15T13:53:16;39.17;;;20.75;;
84668;SDS011;74897;42.704;23.318;2024-01-15T13:55:41;43.85;;;23.17;;
84668;SDS011;74897;42.704;23.318;2024-01-15T13:58:06;52.08;;;23.02;;
84668;SDS011;74897;42.704;23.318;2024-01-15T14:00:32;40.92;;;21.13;;
84668;SDS011;74897;42.704;23.318;2024-01-15T14:02:57;57.17;;;25.38;;
84668;SDS011;74897;42.704;23.318;2024-01-15T14:05:25;57.83;;;26.17;;
84668;SDS011;74897;42.704;23.318;2024-01-15T14:07:51;52.78;;;25.83;;
84668;SDS011;74897;42.704;23.318;2024-01-15T14:10:16;58.28;;;27.20;;
84668;SDS011;74897;42.704;23.318;2024-01-15T14:12:42;53.85;;;25.80;;
84668;SDS011;74897;42.704;23.318;2024-01-15T14:15:09;53.10;;;25.70;;
84668;SDS011;74897;42.704;23.318;2024-01-15T14:17:34;54.78;;;25.77;;
84668;SDS011;74897;42.704;23.318;2024-01-15T14:19:59;56.17;;;26.77;;
84668;SDS011;74897;42.704;23.318;2024-01-15T14:22:25;56.17;;;27.38;;
84668;SDS011;74897;42.704;23.318;2024-01-15T14:24:52;57.38;;;28.95;;
84668;SDS011;74897;42.704;23.318;2024-01-15T14:27:17;60.38;;;31.23;;
84668;SDS011;74897;42.704;23.318;2024-01-15T14:29:43;65.03;;;29.48;;
84668;SDS011;74897;42.704;23.318;2024-01-15T14:32:09;58.80;;;28.13;;
84668;SDS011;74897;42.704;23.318;2024-01-15T14:34:34;66.45;;;28.42;;
84668;SDS011;74897;42.704;23.318;2024-01-15T14:37:02;65.78;;;29.65;;
84668;SDS011;74897;42.704;23.318;2024-01-15T14:39:27;69.25;;;32.60;;
84668;SDS011;74897;42.704;23.318;2024-01-15T14:41:53;77.22;;;33.03;;
84668;SDS011;74897;42.704;23.318;2024-01-15T14:44:18;71.50;;;31.38;;
84668;SDS011;74897;42.704;23.318;2024-01-15T14:46:43;75.55;;;35.08;;
84668;SDS011;74897;42.704;23.318;2024-01-15T14:49:09;69.00;;;32.58;;
84668;SDS011;74897;42.704;23.318;2024-01-15T14:51:34;78.22;;;34.97;;
84668;SDS011;74897;42.704;23.318;2024-01-15T14:53:59;63.70;;;32.47;;
84668;SDS011;74897;42.704;23.318;2024-01-15T14:56:25;66.60;;;32.53;;
84668;SDS011;74897;42.704;23.318;2024-01-15T14:58:50;72.03;;;31.20;;
84668;SDS011;74897;42.704;23.318;2024-01-15T15:01:15;61.00;;;31.05;;
84668;SDS011;74897;42.704;23.318;2024-01-15T15:03:41;71.75;;;33.72;;
84668;SDS011;74897;42.704;23.318;2024-01-15T15:06:07;79.05;;;32.22;;
84668;SDS011;74897;42.704;23.318;2024-01-15T15:08:35;68.82;;;30.85;;
84668;SDS011;74897;42.704;23.318;2024-01-15T15:11:01;76.93;;;33.55;;
84668;SDS011;74897;42.704;23.318;2024-01-15T15:13:26;72.00;;;34.17;;